Flight Track Log - Related Links

Times and Time Zones

All times are in EDT time to prevent confusion due to time zone crossing. See the ASA124 flight status page for this flight to view local times or setup timezone preferences in your user account.


Time Position Orientation Groundspeed Altitude Reporting Facility
EDT Latitude Longitude Course Direction KTS MPH feet Rate Location/Type
Sun 09:36:36 PM 64.7667 -147.7167 120° Southeast 240 276 3,700  Level Anchorage Center
Sun 09:37:36 PM 64.7167 -147.6333 145° Southeast 260 299 6,700 2,950 Climbing Anchorage Center
Sun 09:38:36 PM 64.6500 -147.5000 139° Southeast 280 322 9,600 2,281 Climbing Anchorage Center
Sun 09:39:37 PM 64.6167 -147.3333 115° Southeast 320 368 11,300 2,281 Climbing Anchorage Center
Sun 09:40:37 PM 64.5500 -147.1333 128° Southeast 350 403 14,200 2,500 Climbing Anchorage Center
Sun 09:41:00 PM 64.3330 -146.5137 125° Southeast  Level Estimated
Sun 09:41:37 PM 64.5000 -146.9333 120° Southeast 390 449 16,300  Level Anchorage Center
Sun 09:42:00 PM 64.2699 -146.2642 120° Southeast  Level FlightAware Approximate
Sun 09:42:37 PM 64.4333 -146.7167 125° Southeast 410 472 19,100  Level Anchorage Center
Sun 09:43:37 PM 64.3667 -146.4667 122° Southeast 420 483 21,800 2,350 Climbing Anchorage Center
Sun 09:44:37 PM 64.3167 -146.2500 118° Southeast 440 506 23,800 1,900 Climbing Anchorage Center
Sun 09:45:37 PM 64.2333 -145.9833 126° Southeast 450 518 25,600 1,800 Climbing Anchorage Center
Sun 09:46:37 PM 64.1667 -145.7500 123° Southeast 470 541 27,400 2,000 Climbing Anchorage Center
Sun 09:47:37 PM 64.0833 -145.4833 125° Southeast 470 541 29,600 2,050 Climbing Anchorage Center
Sun 09:48:37 PM 64.0167 -145.2333 121° Southeast 470 541 31,500 1,650 Climbing Anchorage Center
Sun 09:49:37 PM 63.9500 -145.0000 123° Southeast 480 552 32,900 1,339 Climbing Anchorage Center
Sun 09:50:38 PM 63.8667 -144.7667 129° Southeast 490 564 34,200 1,339 Climbing Anchorage Center
Sun 09:51:38 PM 63.8000 -144.5167 121° Southeast 500 575 35,600 1,350 Climbing Anchorage Center
Sun 09:52:38 PM 63.7167 -144.2667 127° Southeast 500 575 36,900 1,400 Climbing Anchorage Center
Sun 09:53:38 PM 63.6333 -144.0167 127° Southeast 500 575 38,400 1,050 Climbing Anchorage Center
Sun 09:54:38 PM 63.5500 -143.7500 125° Southeast 500 575 39,000 300 Climbing Anchorage Center
Sun 09:55:38 PM 63.4833 -143.5167 123° Southeast 490 564 39,000  Level Anchorage Center
Sun 09:56:38 PM 63.4000 -143.2667 127° Southeast 500 575 39,000  Level Anchorage Center
Sun 09:57:38 PM 63.3167 -143.0167 127° Southeast 490 564 39,000  Level Anchorage Center
Sun 09:58:38 PM 63.2333 -142.7667 126° Southeast 500 575 39,000  Level Anchorage Center
Sun 10:00:39 PM 63.0667 -142.2667 126° Southeast 500 575 39,000  Level Anchorage Center
Sun 10:01:39 PM 62.9833 -142.0167 126° Southeast 510 587 39,000  Level Anchorage Center
Sun 10:02:38 PM 62.8833 -141.7833 133° Southeast 510 587 39,000  Level Anchorage Center
Sun 10:03:39 PM 62.7833 -141.6000 140° Southeast 490 564 39,000  Level Anchorage Center
Sun 10:04:39 PM 62.6833 -141.4000 137° Southeast 500 575 39,000  Level Anchorage Center
Sun 10:05:39 PM 62.5500 -141.1667 141° Southeast 490 564 39,000  Level Anchorage Center
Sun 10:06:39 PM 62.4667 -141.0167 140° Southeast 490 564 39,000  Level Anchorage Center
Sun 10:07:39 PM 62.3667 -140.8167 137° Southeast 480 552 39,000  Level Anchorage Center
Sun 10:08:39 PM 62.2667 -140.6167 137° Southeast 490 564 39,000  Level Anchorage Center
Sun 10:09:54 PM 62.1167 -140.3667 142° Southeast 480 552 39,000  Level Anchorage Center
Sun 10:11:00 PM 62.0095 -140.1693 139° Southeast  Level FlightAware Approximate
Sun 10:13:09 PM 61.8000 -139.7667 148° Southeast 460 529 39,000  Level Anchorage Center
Sun 10:15:35 PM 61.5333 -139.3333 142° Southeast 470 541 39,000  Level Anchorage Center
Sun 10:16:35 PM 61.4333 -139.1500 139° Southeast 480 552 39,000  Level Anchorage Center
Sun 10:17:35 PM 61.3333 -138.9667 139° Southeast 490 564 39,000  Level Anchorage Center
Sun 10:18:00 PM 61.3197 -138.9489 148° Southeast  Level FlightAware Approximate
Sun 10:18:35 PM 61.2167 -138.8167 148° Southeast 480 552 39,000  Level Anchorage Center
Sun 10:19:35 PM 61.1000 -138.6833 151° Southeast 480 552 39,000  Level Anchorage Center
Sun 10:20:36 PM 60.9833 -138.5333 148° Southeast 480 552 39,000  Level Anchorage Center
Sun 10:21:35 PM 60.8667 -138.3833 148° Southeast 480 552 39,000  Level Anchorage Center
Sun 10:22:35 PM 60.7667 -138.2500 147° Southeast 480 552 39,000  Level Anchorage Center
Sun 10:23:36 PM 60.6500 -138.1000 148° Southeast 480 552 39,000  Level Anchorage Center
Sun 10:24:36 PM 60.5333 -137.9500 148° Southeast 480 552 39,000  Level Anchorage Center
Sun 10:25:36 PM 60.4167 -137.8167 151° Southeast 480 552 39,000  Level Anchorage Center
Sun 10:26:36 PM 60.3000 -137.6667 147° Southeast 480 552 39,000  Level Anchorage Center
Sun 10:27:36 PM 60.1833 -137.5333 150° Southeast 480 552 39,000  Level Anchorage Center
Sun 10:28:37 PM 60.0667 -137.4000 150° Southeast 470 541 39,000  Level Anchorage Center
Sun 10:29:36 PM 59.9833 -137.2833 145° Southeast 480 552 39,000  Level Anchorage Center
Sun 10:30:36 PM 59.8667 -137.1500 150° Southeast 490 564 39,000  Level Anchorage Center
Sun 10:31:37 PM 59.7500 -137.0000 147° Southeast 480 552 39,000  Level Anchorage Center
Sun 10:32:37 PM 59.6333 -136.8667 150° Southeast 490 564 39,000  Level Anchorage Center
Sun 10:33:37 PM 59.5000 -136.7333 153° Southeast 500 575 39,000  Level Anchorage Center
Sun 10:34:37 PM 59.3833 -136.5833 147° Southeast 500 575 39,000  Level Anchorage Center
Sun 10:35:37 PM 59.2667 -136.4500 150° Southeast 500 575 39,000  Level Anchorage Center
Sun 10:36:37 PM 59.1500 -136.3167 150° Southeast 500 575 39,000  Level Anchorage Center
Sun 10:37:38 PM 59.0333 -136.1833 150° Southeast 500 575 39,000  Level Anchorage Center
Sun 10:38:38 PM 58.9000 -136.0500 153° Southeast 500 575 39,000  Level Anchorage Center
Sun 10:39:38 PM 58.7667 -135.9000 150° Southeast 500 575 39,000  Level Anchorage Center
Sun 10:40:38 PM 58.6500 -135.7667 149° Southeast 500 575 39,000  Level Anchorage Center
Sun 10:41:38 PM 58.5333 -135.6333 149° Southeast 500 575 39,000  Level Anchorage Center
Sun 10:42:38 PM 58.4000 -135.5000 152° Southeast 500 575 39,000  Level Anchorage Center
Sun 10:43:38 PM 58.2833 -135.3667 149° Southeast 500 575 39,000  Level Anchorage Center
Sun 10:44:38 PM 58.1667 -135.2333 149° Southeast 500 575 39,000  Level Anchorage Center
Sun 10:45:38 PM 58.0833 -135.0833 136° Southeast 500 575 39,000  Level Anchorage Center
Sun 10:46:38 PM 57.9667 -134.9167 143° Southeast 520 598 39,000  Level Anchorage Center
Sun 10:47:38 PM 57.8667 -134.7333 136° Southeast 510 587 39,000  Level Anchorage Center
Sun 10:48:39 PM 57.7500 -134.5500 140° Southeast 510 587 39,000  Level Anchorage Center
Sun 10:49:39 PM 57.6500 -134.3833 138° Southeast 510 587 39,000  Level Anchorage Center
Sun 10:50:39 PM 57.5333 -134.2000 140° Southeast 520 598 39,000  Level Anchorage Center
Sun 10:51:39 PM 57.4167 -134.0333 142° Southeast 520 598 39,000  Level Anchorage Center
Sun 10:52:39 PM 57.3167 -133.8500 135° Southeast 510 587 39,000  Level Anchorage Center
Sun 10:53:39 PM 57.2000 -133.6833 142° Southeast 520 598 39,000  Level Anchorage Center
Sun 10:54:40 PM 57.1000 -133.5167 138° Southeast 510 587 39,000  Level Anchorage Center
Sun 10:55:40 PM 56.9833 -133.3500 142° Southeast 520 598 39,000  Level Anchorage Center
Sun 10:56:40 PM 56.8833 -133.1833 138° Southeast 520 598 39,000  Level Anchorage Center
Sun 10:57:40 PM 56.7667 -133.0000 139° Southeast 520 598 39,000  Level Anchorage Center
Sun 10:58:40 PM 56.6500 -132.8333 142° Southeast 530 610 39,000  Level Anchorage Center
Sun 10:59:40 PM 56.5333 -132.6667 142° Southeast 520 598 39,000  Level Anchorage Center
Sun 11:00:40 PM 56.4333 -132.5000 137° Southeast 530 610 39,000  Level Anchorage Center
Sun 11:01:40 PM 56.3167 -132.3333 142° Southeast 520 598 39,000  Level Anchorage Center
Sun 11:02:40 PM 56.2000 -132.1667 141° Southeast 530 610 39,000  Level Anchorage Center
Sun 11:03:40 PM 56.0833 -132.0000 141° Southeast 520 598 39,000  Level Anchorage Center
Sun 11:04:41 PM 55.9833 -131.8333 137° Southeast 520 598 39,000  Level Anchorage Center
Sun 11:05:41 PM 55.8667 -131.6833 144° Southeast 520 598 39,000  Level Anchorage Center
Sun 11:06:41 PM 55.7500 -131.5167 141° Southeast 530 610 39,000  Level Anchorage Center
Sun 11:07:41 PM 55.6333 -131.3500 141° Southeast 520 598 39,000  Level Anchorage Center
Sun 11:08:41 PM 55.5000 -131.1833 145° Southeast 520 598 39,000  Level Anchorage Center
Sun 11:09:41 PM 55.3833 -131.0333 144° Southeast 520 598 39,000  Level Anchorage Center
Sun 11:10:42 PM 55.2833 -130.8833 139° Southeast 520 598 39,000  Level Anchorage Center
Sun 11:11:41 PM 55.1667 -130.7167 141° Southeast 520 598 39,000  Level Anchorage Center
Sun 11:12:41 PM 55.0500 -130.5667 144° Southeast 520 598 39,000  Level Anchorage Center
Sun 11:13:41 PM 54.9333 -130.4000 141° Southeast 520 598 39,000  Level Anchorage Center
Sun 11:14:12 PM 54.8833 -130.3500 150° Southeast 520 598 39,000  Level Vancouver Center
Sun 11:15:12 PM 54.7667 -130.2167 147° Southeast 530 610 39,000  Level Vancouver Center
Sun 11:16:12 PM 54.6333 -130.0500 144° Southeast 520 598 39,000  Level Vancouver Center
Sun 11:17:12 PM 54.5333 -129.9167 142° Southeast 510 587 39,000  Level Vancouver Center
Sun 11:18:12 PM 54.4167 -129.7667 143° Southeast 520 598 39,000  Level Vancouver Center
Sun 11:19:12 PM 54.3000 -129.6000 140° Southeast 530 610 39,000  Level Vancouver Center
Sun 11:20:12 PM 54.1833 -129.4667 146° Southeast 530 610 39,000  Level Vancouver Center
Sun 11:21:12 PM 54.0500 -129.3167 147° Southeast 530 610 39,000  Level Vancouver Center
Sun 11:22:12 PM 53.9500 -129.1667 139° Southeast 530 610 39,000  Level Vancouver Center
Sun 11:23:12 PM 53.8167 -129.0000 144° Southeast 530 610 39,000  Level Vancouver Center
Sun 11:24:12 PM 53.7000 -128.8667 146° Southeast 540 621 39,000  Level Vancouver Center
Sun 11:25:12 PM 53.5833 -128.7167 143° Southeast 530 610 39,000  Level Vancouver Center
Sun 11:26:12 PM 53.4667 -128.5667 143° Southeast 540 621 39,000  Level Vancouver Center
Sun 11:27:12 PM 53.3333 -128.4167 146° Southeast 530 610 39,000  Level Vancouver Center
Sun 11:28:12 PM 53.2333 -128.2833 141° Southeast 520 598 39,000  Level Vancouver Center
Sun 11:29:12 PM 53.1000 -128.1333 146° Southeast 540 621 39,000  Level Vancouver Center
Sun 11:30:12 PM 52.9833 -128.0167 149° Southeast 520 598 39,000  Level Vancouver Center
Sun 11:31:12 PM 52.8667 -127.8667 142° Southeast 520 598 39,000  Level Vancouver Center
Sun 11:32:12 PM 52.7500 -127.7167 142° Southeast 520 598 39,000  Level Vancouver Center
Sun 11:33:12 PM 52.6333 -127.5667 142° Southeast 520 598 39,000  Level Vancouver Center
Sun 11:34:12 PM 52.5000 -127.4500 152° Southeast 520 598 39,000  Level Vancouver Center
Sun 11:35:12 PM 52.4000 -127.3000 138° Southeast 520 598 39,000  Level Vancouver Center
Sun 11:36:12 PM 52.2833 -127.1833 149° Southeast 520 598 39,000  Level Vancouver Center
Sun 11:37:12 PM 52.1667 -127.0333 142° Southeast 520 598 39,000  Level Vancouver Center
Sun 11:38:12 PM 52.0333 -126.9000 148° Southeast 520 598 39,000  Level Vancouver Center
Sun 11:39:12 PM 51.9167 -126.7833 148° Southeast 530 610 39,000  Level Vancouver Center
Sun 11:40:12 PM 51.8000 -126.6333 141° Southeast 530 610 39,000  Level Vancouver Center
Sun 11:41:12 PM 51.6833 -126.4833 141° Southeast 530 610 39,000  Level Vancouver Center
Sun 11:42:12 PM 51.5667 -126.3833 152° Southeast 520 598 39,000  Level Vancouver Center
Sun 11:43:12 PM 51.4333 -126.2333 145° Southeast 520 598 39,000  Level Vancouver Center
Sun 11:44:12 PM 51.3167 -126.1167 148° Southeast 520 598 39,000  Level Vancouver Center
Sun 11:45:12 PM 51.1833 -125.9833 148° Southeast 520 598 39,000  Level Vancouver Center
Sun 11:46:12 PM 51.0667 -125.8500 144° Southeast 520 598 39,000  Level Vancouver Center
Sun 11:47:12 PM 50.9667 -125.7333 144° Southeast 510 587 39,000  Level Vancouver Center
Sun 11:48:12 PM 50.8500 -125.6000 144° Southeast 510 587 39,000  Level Vancouver Center
Sun 11:49:12 PM 50.7167 -125.4833 151° Southeast 510 587 39,000  Level Vancouver Center
Sun 11:50:12 PM 50.6000 -125.3500 144° Southeast 510 587 39,000  Level Vancouver Center
Sun 11:51:12 PM 50.4833 -125.2500 151° Southeast 510 587 39,000  Level Vancouver Center
Sun 11:52:12 PM 50.3667 -125.1000 141° Southeast 510 587 39,000  Level Vancouver Center
Sun 11:53:12 PM 50.2500 -125.0000 151° Southeast 510 587 39,000  Level Vancouver Center
Sun 11:54:12 PM 50.1167 -124.8667 147° Southeast 510 587 39,000  Level Vancouver Center
Sun 11:55:12 PM 50.0000 -124.7667 151° Southeast 510 587 39,000  Level Vancouver Center
Sun 11:56:12 PM 49.8833 -124.6333 144° Southeast 510 587 39,000  Level Vancouver Center
Sun 11:57:12 PM 49.7667 -124.5167 147° Southeast 510 587 39,000  Level Vancouver Center
Sun 11:58:12 PM 49.6500 -124.4000 147° Southeast 510 587 39,000  Level Vancouver Center
Sun 11:59:12 PM 49.5333 -124.2667 143° Southeast 510 587 39,000  Level Vancouver Center
Mon 12:00:12 AM 49.4167 -124.1667 151° Southeast 510 587 39,000  Level Vancouver Center
Mon 12:01:12 AM 49.2833 -124.0333 147° Southeast 510 587 39,000 -500 Level Vancouver Center
Mon 12:02:12 AM 49.1667 -123.9333 151° Southeast 510 587 38,000 -950 Descending Vancouver Center
Mon 12:03:12 AM 49.0500 -123.8000 143° Southeast 510 587 37,100 -950 Descending Vancouver Center
Mon 12:04:12 AM 48.9333 -123.7000 151° Southeast 510 587 36,100 -1,050 Descending Vancouver Center
Mon 12:05:12 AM 48.8000 -123.5667 147° Southeast 510 587 35,000 -2,000 Descending Vancouver Center
Mon 12:06:12 AM 48.6833 -123.4667 150° Southeast 520 598 32,100 -2,750 Descending Vancouver Center
Mon 12:07:12 AM 48.5667 -123.3500 146° Southeast 520 598 29,500 -2,450 Descending Vancouver Center
Mon 12:08:12 AM 48.4500 -123.2500 150° Southeast 500 575 27,200 -2,344 Descending Vancouver Center
Mon 12:09:20 AM 48.3419 -123.1242 142° Southeast 487 560 24,500 -2,233 Descending Seattle Center
Mon 12:10:21 AM 48.2311 -123.0222 148° Southeast 470 541 22,400 -2,175 Descending Seattle Center
Mon 12:10:40 AM 48.1886 -122.9847 150° Southeast 469 540 21,600 -2,100 Descending Seattle Center
Mon 12:11:21 AM 48.1217 -122.9231 148° Southeast 463 533 20,300 -2,082 Descending Seattle Center
Mon 12:11:29 AM 48.1011 -122.9067 152° Southeast 451 519 19,900 -1,869 Descending Seattle Center
Mon 12:12:22 AM 48.0217 -122.8319 148° Southeast 431 496 18,400 -1,800 Descending Seattle Center
Mon 12:12:29 AM 48.0064 -122.8194 151° Southeast 394 453 18,100 -1,700 Descending Seattle Center
Mon 12:13:22 AM 47.9292 -122.7519 150° Southeast 383 441 16,700 -1,672 Descending Seattle Center
Mon 12:13:30 AM 47.9186 -122.7419 148° Southeast 370 426 16,400 -1,574 Descending Seattle Center
Mon 12:14:23 AM 47.8461 -122.6767 149° Southeast 353 406 15,100 -1,556 Descending Seattle Center
Mon 12:14:24 AM 47.8414 -122.6722 148° Southeast 349 402 15,000 -1,574 Descending Seattle Center
Mon 12:15:24 AM 47.7617 -122.6008 149° Southeast 338 389 13,500 -1,574 Descending Seattle Center
Mon 12:15:25 AM 47.7589 -122.5989 155° Southeast 325 374 13,400 -1,400 Descending Seattle Center
Mon 12:16:24 AM 47.6869 -122.5331 148° Southeast 321 369 12,100 -1,433 Descending Seattle Center
Mon 12:16:32 AM 47.6753 -122.5228 149° Southeast 317 365 11,800 -1,475 Descending Seattle Center
Mon 12:17:25 AM 47.6133 -122.4686 149° Southeast 311 358 10,600 -1,300 Descending Seattle Center
Mon 12:17:32 AM 47.6022 -122.4611 156° South 302 348 10,500 -1,279 Descending Seattle Center
Mon 12:18:26 AM 47.5297 -122.4592 179° South 289 333 9,300 -1,309 Descending Seattle Center
Mon 12:18:27 AM 47.5303 -122.4581 53° Northeast 279 321 9,300 -1,300 Level Seattle Center
Mon 12:19:26 AM 47.4547 -122.4606 181° South 274 315 8,000 -1,377 Descending Seattle Center
Mon 12:19:28 AM 47.4558 -122.4628 306° West 263 303 7,900 -1,672 Descending Seattle Center
Mon 12:20:27 AM 47.3833 -122.4617 179° South 260 299 6,300 -1,701 Descending Seattle Center
Mon 12:20:35 AM 47.3717 -122.4631 185° South 259 298 6,000 -1,500 Descending Seattle Center
Mon 12:21:27 AM 47.3114 -122.4489 171° South 265 305 4,800 -1,300 Descending Seattle Center
Mon 12:21:35 AM 47.3008 -122.4464 171° South 269 310 4,700 -689 Descending Seattle Center
Mon 12:22:28 AM 47.2469 -122.4097 155° Southeast 258 297 4,100 -689 Descending Seattle Center
Mon 12:22:36 AM 47.2422 -122.4000 126° Southeast 239 275 4,000 -98 Descending Seattle Center
Mon 12:23:29 AM 47.2472 -122.3378 83° East 168 193 4,000  Level Seattle Center
Mon 12:23:37 AM 47.2506 -122.3367 13° North 146 168 4,000 -600 Level Seattle Center
Mon 12:24:29 AM 47.2833 -122.3089 30° Northeast 150 173 3,400 -716 Descending Seattle Center
Mon 12:24:44 AM 47.2928 -122.3103 354° North 145 167 3,200 -984 Descending Seattle Center
Mon 12:25:30 AM 47.3261 -122.3089 North 154 177 2,400 -985 Descending Seattle Center
Mon 12:25:51 AM 47.3397 -122.3106 355° North 155 178 2,100 -900 Descending Seattle Center
Mon 12:26:30 AM 47.3664 -122.3086 North 146 168 1,500 -700 Descending Seattle Center
Mon 12:26:51 AM 47.3772 -122.3094 357° North 139 160 1,400 -590 Descending Seattle Center
Mon 12:27:31 AM 47.3997 -122.3086 North 124 143 900 -689 Descending Seattle Center
Mon 12:27:52 AM 47.4128 -122.3097 357° North 117 135 700 -590 Descending Seattle Center
Mon 12:28:32 AM 47.4356 -122.3083 North 128 147 300 -600 Descending Seattle Center
Mon 12:30:00 AM 47.4333 -122.3000 34° Northeast  Level FlightAware Approximate

Login

Don't have an account? Register now (free) for customized features, flight alerts, and more!